createdAt,value
2023-03-22T00:01:21.611Z,71.43
2023-03-22T00:03:49.442Z,69.14
2023-03-22T00:06:16.812Z,65.32
2023-03-22T00:08:44.337Z,61.64
2023-03-22T00:11:12.141Z,62.12
2023-03-22T00:13:39.399Z,62.86
2023-03-22T00:16:06.950Z,62.92
2023-03-22T00:18:34.537Z,62.38
2023-03-22T00:21:01.911Z,63.34
2023-03-22T00:23:29.494Z,64.56
2023-03-22T00:25:57.018Z,66.57
2023-03-22T00:28:24.613Z,68.22
2023-03-22T00:30:56.434Z,67.84
2023-03-22T00:33:27.627Z,65.34
2023-03-22T00:35:57.513Z,64.11
2023-03-22T00:38:39.463Z,63.63
2023-03-22T00:41:13.837Z,62.46
2023-03-22T00:43:41.423Z,66.34
2023-03-22T00:46:08.976Z,65.58
2023-03-22T00:48:36.849Z,68.13
2023-03-22T00:51:04.922Z,68.28
2023-03-22T00:53:36.532Z,68.08
2023-03-22T00:56:06.349Z,69.05
2023-03-22T00:58:35.719Z,73.07
2023-03-22T01:01:03.041Z,75.39
2023-03-22T01:03:30.324Z,78.05
2023-03-22T01:05:58.204Z,78.91
2023-03-22T01:08:25.413Z,78.11
2023-03-22T01:10:53.461Z,76.21
2023-03-22T01:13:20.931Z,73.86
2023-03-22T01:15:50.190Z,70.09
2023-03-22T01:18:17.932Z,66.58
2023-03-22T01:20:45.678Z,63.38
2023-03-22T01:23:12.937Z,62.21
2023-03-22T01:25:40.397Z,62.50
2023-03-22T01:28:08.756Z,64.56
2023-03-22T01:30:36.007Z,67.98
2023-03-22T01:33:03.629Z,70.94
2023-03-22T01:35:33.245Z,71.02
2023-03-22T01:38:01.011Z,71.46
2023-03-22T01:40:28.532Z,72.87
2023-03-22T01:42:57.019Z,72.20
2023-03-22T01:45:30.409Z,70.16
2023-03-22T01:48:17.845Z,66.19
2023-03-22T01:50:49.936Z,62.95
2023-03-22T01:53:19.104Z,62.79
2023-03-22T01:55:47.098Z,66.18
2023-03-22T01:58:17.970Z,70.49
2023-03-22T02:00:47.013Z,73.54
2023-03-22T02:03:15.491Z,69.70
2023-03-22T02:05:43.600Z,69.46
2023-03-22T02:08:15.114Z,68.99
2023-03-22T02:10:44.014Z,69.93
2023-03-22T02:13:30.133Z,72.58
2023-03-22T02:16:02.363Z,73.99
2023-03-22T02:18:38.673Z,73.34
2023-03-22T02:21:28.006Z,73.12
2023-03-22T02:23:57.980Z,68.87
2023-03-22T02:26:46.950Z,68.95
2023-03-22T02:29:17.878Z,74.53
2023-03-22T02:31:49.060Z,73.89
2023-03-22T02:34:35.873Z,76.13
2023-03-22T02:37:06.298Z,76.15
2023-03-22T02:39:42.600Z,74.54
2023-03-22T02:42:13.479Z,74.76
2023-03-22T02:44:59.558Z,76.87
2023-03-22T02:47:40.867Z,76.90
2023-03-22T02:50:11.163Z,74.99
2023-03-22T02:52:44.542Z,74.87
2023-03-22T02:55:20.575Z,76.17
2023-03-22T02:57:49.284Z,74.67
2023-03-22T03:00:17.960Z,74.97
2023-03-22T03:02:47.535Z,72.22
2023-03-22T03:05:15.318Z,75.37
2023-03-22T03:07:43.371Z,74.35
2023-03-22T03:10:12.355Z,75.22
2023-03-22T03:12:42.049Z,76.73
2023-03-22T03:15:17.086Z,77.97
2023-03-22T03:17:53.725Z,78.77
2023-03-22T03:20:30.276Z,75.24
2023-03-22T03:23:19.887Z,73.62
2023-03-22T03:25:49.995Z,75.11
2023-03-22T03:28:30.206Z,75.38
2023-03-22T03:30:59.657Z,76.19
2023-03-22T03:33:27.162Z,74.32
2023-03-22T03:35:56.410Z,71.30
2023-03-22T03:38:25.741Z,75.75
2023-03-22T03:41:01.257Z,76.31
2023-03-22T03:43:28.451Z,78.85
2023-03-22T03:45:56.060Z,80.31
2023-03-22T03:48:24.151Z,79.90
2023-03-22T03:50:52.268Z,77.10
2023-03-22T03:53:20.137Z,74.15
2023-03-22T03:55:47.332Z,76.20
2023-03-22T03:58:16.770Z,73.07
2023-03-22T04:00:46.437Z,74.78
2023-03-22T04:03:14.706Z,79.96
2023-03-22T04:05:43.768Z,80.75
2023-03-22T04:08:10.962Z,80.63
2023-03-22T04:10:38.836Z,81.55
2023-03-22T04:13:06.191Z,76.89
2023-03-22T04:15:33.856Z,75.70
2023-03-22T04:18:01.715Z,74.71
2023-03-22T04:20:30.585Z,76.34
2023-03-22T04:23:00.576Z,80.06
2023-03-22T04:25:30.442Z,77.97
2023-03-22T04:28:00.579Z,76.46
2023-03-22T04:30:30.853Z,75.72
2023-03-22T04:32:59.091Z,79.39
2023-03-22T04:35:26.529Z,80.98
2023-03-22T04:37:54.260Z,83.03
2023-03-22T04:40:21.693Z,81.58
2023-03-22T04:42:49.035Z,80.29
2023-03-22T04:45:17.020Z,80.81
2023-03-22T04:47:44.836Z,80.46
2023-03-22T04:50:12.340Z,80.01
2023-03-22T04:52:41.580Z,77.51
2023-03-22T04:55:08.881Z,76.95
2023-03-22T04:57:36.271Z,79.84
2023-03-22T05:00:08.383Z,76.94
2023-03-22T05:02:41.163Z,74.02
2023-03-22T05:05:10.020Z,73.55
2023-03-22T05:07:39.264Z,74.73
2023-03-22T05:10:07.133Z,79.57
2023-03-22T05:12:34.789Z,79.77
2023-03-22T05:15:04.287Z,81.69
2023-03-22T05:17:32.836Z,82.07
2023-03-22T05:20:09.192Z,80.53
2023-03-22T05:22:40.572Z,80.35
2023-03-22T05:25:09.490Z,78.67
2023-03-22T05:27:39.063Z,77.46
2023-03-22T05:30:07.465Z,76.51
2023-03-22T05:32:37.570Z,74.15
2023-03-22T05:35:06.444Z,80.15
2023-03-22T05:37:34.192Z,80.02
2023-03-22T05:40:02.243Z,80.12
2023-03-22T05:42:30.724Z,79.48
2023-03-22T05:44:58.162Z,78.72
2023-03-22T05:47:25.922Z,77.04
2023-03-22T05:49:53.518Z,75.64
2023-03-22T05:52:22.916Z,78.01
2023-03-22T05:54:51.089Z,78.52
2023-03-22T05:57:18.616Z,73.88
2023-03-22T05:59:45.867Z,76.01
2023-03-22T06:02:17.320Z,77.32
2023-03-22T06:04:45.048Z,73.30
2023-03-22T06:07:12.867Z,69.91
2023-03-22T06:09:40.586Z,71.00
2023-03-22T06:12:08.797Z,69.36
2023-03-22T06:14:36.277Z,69.09
2023-03-22T06:17:04.064Z,70.82
2023-03-22T06:19:31.845Z,71.76
2023-03-22T06:22:01.755Z,71.31
2023-03-22T06:24:29.138Z,69.43
2023-03-22T06:26:56.644Z,69.29
2023-03-22T06:29:24.155Z,69.19
2023-03-22T06:31:52.159Z,70.67
2023-03-22T06:34:19.644Z,71.91
2023-03-22T06:36:47.151Z,73.51
2023-03-22T06:39:14.595Z,72.38
2023-03-22T06:41:43.410Z,70.17
2023-03-22T06:44:10.825Z,66.84
2023-03-22T06:46:38.492Z,64.87
2023-03-22T06:49:06.652Z,65.60
2023-03-22T06:51:34.925Z,65.76
2023-03-22T06:54:05.002Z,67.59
2023-03-22T06:56:32.544Z,67.69
2023-03-22T06:59:01.151Z,65.88
2023-03-22T07:01:28.412Z,64.24
2023-03-22T07:03:56.569Z,63.36
2023-03-22T07:06:24.023Z,66.52
2023-03-22T07:08:52.229Z,67.41
2023-03-22T07:11:20.070Z,67.39
2023-03-22T07:13:47.978Z,68.84
2023-03-22T07:16:16.689Z,65.18
2023-03-22T07:18:45.548Z,64.28
2023-03-22T07:21:13.547Z,64.13
2023-03-22T07:23:41.376Z,62.83
2023-03-22T07:26:09.099Z,62.48
2023-03-22T07:28:36.900Z,61.42
2023-03-22T07:31:05.599Z,59.25
2023-03-22T07:33:33.767Z,62.86
2023-03-22T07:36:02.113Z,61.71
2023-03-22T07:38:29.497Z,60.34
2023-03-22T07:40:57.051Z,62.86
2023-03-22T07:43:24.702Z,60.78
2023-03-22T07:45:53.827Z,60.86
2023-03-22T07:48:25.626Z,59.61
2023-03-22T07:50:56.509Z,58.18
2023-03-22T07:53:24.417Z,57.73
2023-03-22T07:55:52.035Z,57.09
2023-03-22T07:58:19.518Z,57.65
2023-03-22T08:00:49.711Z,56.43
2023-03-22T08:03:19.171Z,54.74
2023-03-22T08:05:48.483Z,54.07
2023-03-22T08:08:15.982Z,54.26
2023-03-22T08:10:48.678Z,54.44
2023-03-22T08:13:16.404Z,55.82
2023-03-22T08:15:43.966Z,54.18
2023-03-22T08:18:11.483Z,53.13
2023-03-22T08:20:39.317Z,51.75
2023-03-22T08:23:11.406Z,53.72
2023-03-22T08:25:40.959Z,53.89
2023-03-22T08:28:09.577Z,52.83
2023-03-22T08:30:38.038Z,52.58
2023-03-22T08:33:06.464Z,51.87
2023-03-22T08:35:34.235Z,51.39
2023-03-22T08:38:01.464Z,51.27
2023-03-22T08:40:29.556Z,51.53
2023-03-22T08:42:57.482Z,50.93
2023-03-22T08:45:25.082Z,51.29
2023-03-22T08:47:52.527Z,54.59
2023-03-22T08:50:21.414Z,52.19
2023-03-22T08:52:49.984Z,56.18
2023-03-22T08:55:17.496Z,55.98
2023-03-22T08:57:50.452Z,53.88
2023-03-22T09:00:18.329Z,52.02
2023-03-22T09:02:46.074Z,53.77
2023-03-22T09:05:14.235Z,53.44
2023-03-22T09:07:41.890Z,52.89
2023-03-22T09:10:09.956Z,53.89
2023-03-22T09:12:38.028Z,53.94
2023-03-22T09:15:07.456Z,54.15
2023-03-22T09:17:35.204Z,54.78
2023-03-22T09:20:12.377Z,55.08
2023-03-22T09:22:40.780Z,55.69
2023-03-22T09:25:12.160Z,56.57
2023-03-22T09:27:41.696Z,54.66
2023-03-22T09:30:09.486Z,54.41
2023-03-22T09:32:36.893Z,55.96
2023-03-22T09:35:04.822Z,55.61
2023-03-22T09:37:33.092Z,55.66
2023-03-22T09:40:01.503Z,55.08
2023-03-22T09:42:31.639Z,54.90
2023-03-22T09:44:59.903Z,54.17
2023-03-22T09:47:56.527Z,55.17
2023-03-22T09:50:26.209Z,53.89
2023-03-22T09:52:53.631Z,55.89
2023-03-22T09:55:24.020Z,57.57
2023-03-22T09:57:57.935Z,56.54
2023-03-22T10:00:25.145Z,57.44
2023-03-22T10:03:12.369Z,58.32
2023-03-22T10:05:54.870Z,58.65
2023-03-22T10:08:31.658Z,58.94
2023-03-22T10:10:59.160Z,58.42
2023-03-22T10:13:29.624Z,57.82
2023-03-22T10:16:01.161Z,57.88
2023-03-22T10:18:38.506Z,58.59
2023-03-22T10:21:07.168Z,58.23
2023-03-22T10:23:35.220Z,57.99
2023-03-22T10:26:02.885Z,57.76
2023-03-22T10:28:41.313Z,58.70
2023-03-22T10:31:15.756Z,58.96
2023-03-22T10:33:54.986Z,58.23
2023-03-22T10:36:23.545Z,58.56
2023-03-22T10:38:53.286Z,58.13
2023-03-22T10:41:21.042Z,58.54
2023-03-22T10:43:50.573Z,59.11
2023-03-22T10:46:19.199Z,59.50
2023-03-22T10:48:47.087Z,59.19
2023-03-22T10:51:33.581Z,59.14
2023-03-22T10:54:01.614Z,58.30
2023-03-22T10:56:29.340Z,58.46
2023-03-22T10:58:59.485Z,58.96
2023-03-22T11:01:28.455Z,58.12
2023-03-22T11:03:57.436Z,58.89
2023-03-22T11:06:30.050Z,57.97
2023-03-22T11:08:58.686Z,56.96
2023-03-22T11:11:26.772Z,57.54
2023-03-22T11:13:53.975Z,57.53
2023-03-22T11:16:21.557Z,57.06
2023-03-22T11:18:48.965Z,56.41
2023-03-22T11:21:17.371Z,56.56
2023-03-22T11:23:56.100Z,57.34
2023-03-22T11:26:28.042Z,56.67
2023-03-22T11:29:02.647Z,56.40
2023-03-22T11:31:31.179Z,53.93
2023-03-22T11:33:59.521Z,55.01
2023-03-22T11:36:27.123Z,54.07
2023-03-22T11:38:58.549Z,55.04
2023-03-22T11:41:27.459Z,52.68
2023-03-22T11:43:58.708Z,52.68
2023-03-22T11:46:26.231Z,51.36
2023-03-22T11:48:58.323Z,49.47
2023-03-22T11:51:29.865Z,49.26
2023-03-22T11:54:03.621Z,48.51
2023-03-22T11:56:31.830Z,49.75
2023-03-22T11:59:09.541Z,48.71
2023-03-22T12:01:44.676Z,46.67
2023-03-22T12:04:20.337Z,46.68
2023-03-22T12:06:48.194Z,46.62
2023-03-22T12:09:26.400Z,45.87
2023-03-22T12:11:55.813Z,46.46
2023-03-22T12:14:27.477Z,49.29
2023-03-22T12:16:54.645Z,49.19
2023-03-22T12:19:31.189Z,49.65
2023-03-22T12:21:59.009Z,49.38
2023-03-22T12:24:30.851Z,48.78
2023-03-22T12:27:00.468Z,49.30
2023-03-22T12:29:28.417Z,50.39
2023-03-22T12:32:00.762Z,50.01
2023-03-22T12:34:33.852Z,49.42
2023-03-22T12:37:01.426Z,49.21
2023-03-22T12:39:31.359Z,47.35
2023-03-22T12:42:00.476Z,46.83
2023-03-22T12:44:28.317Z,47.34
2023-03-22T12:46:57.107Z,47.16
2023-03-22T12:49:27.890Z,47.57
2023-03-22T12:51:56.668Z,46.13
2023-03-22T12:54:24.409Z,46.27
2023-03-22T12:56:52.082Z,45.87
2023-03-22T12:59:20.700Z,45.87
2023-03-22T13:02:12.192Z,46.33
2023-03-22T13:04:42.661Z,47.23
2023-03-22T13:07:19.617Z,44.34
2023-03-22T13:09:48.040Z,44.93
2023-03-22T13:12:15.331Z,44.45
2023-03-22T13:15:00.913Z,43.75
2023-03-22T13:17:28.510Z,44.10
2023-03-22T13:20:01.981Z,42.01
2023-03-22T13:22:38.688Z,42.70
2023-03-22T13:25:12.562Z,43.00
2023-03-22T13:27:50.816Z,43.28
2023-03-22T13:30:28.914Z,43.69
2023-03-22T13:33:03.785Z,42.12
2023-03-22T13:35:43.326Z,43.33
2023-03-22T13:38:21.877Z,42.88
2023-03-22T13:41:07.625Z,43.90
2023-03-22T13:43:47.345Z,44.23
2023-03-22T13:46:17.806Z,44.47
2023-03-22T13:48:49.115Z,43.92
2023-03-22T13:51:23.002Z,44.65
2023-03-22T13:54:08.806Z,44.74
2023-03-22T13:56:43.157Z,45.18
2023-03-22T13:59:11.062Z,45.93
2023-03-22T14:01:44.689Z,45.53
2023-03-22T14:04:12.488Z,46.53
2023-03-22T14:07:00.618Z,46.39
2023-03-22T14:09:28.108Z,45.49
2023-03-22T14:12:14.024Z,45.98
2023-03-22T14:14:42.945Z,47.10
2023-03-22T14:17:13.602Z,47.55
2023-03-22T14:19:41.038Z,47.13
